Time;durP1;ratioP1;P1;durP2;ratioP2;P2;SDS_P1;SDS_P2;PMS_P1;PMS_P2;Temp;Humidity;BMP_temperature;BMP_pressure;BME280_temperature;BME280_humidity;BME280_pressure;Samples;Min_cycle;Max_cycle;Signal;HPM_P1;HPM_P2
2023/09/01 00:02:09;;;;;;;5.63;1.98;;;;;;;;;;10438993;28;20548;-77
2023/09/01 00:07:12;;;;;;;2.55;0.93;;;;;;;;;;10442274;28;20041;-79
2023/09/01 00:12:16;;;;;;;3.53;1.92;;;;;;;;;;10447912;28;20049;-75
2023/09/01 00:17:19;;;;;;;2.13;1.40;;;;;;;;;;10439618;28;20105;-77
2023/09/01 00:22:21;;;;;;;5.97;2.10;;;;;;;;;;10450615;28;20072;-79
2023/09/01 00:27:25;;;;;;;7.10;3.00;;;;;;;;;;10469108;28;20094;-79
2023/09/01 00:32:28;;;;;;;;;;;;;;;;;;10492713;28;20454;-78
2023/09/01 00:37:31;;;;;;;2.17;1.38;;;;;;;;;;10478893;28;19952;-79
2023/09/01 00:42:34;;;;;;;7.05;2.72;;;;;;;;;;10487329;28;20041;-75
2023/09/01 00:47:37;;;;;;;;;;;;;;;;;;10474993;28;20052;-77
2023/09/01 00:52:40;;;;;;;4.43;1.58;;;;;;;;;;10468341;28;19943;-78
2023/09/01 00:57:44;;;;;;;10.25;2.97;;;;;;;;;;10447428;28;20546;-78
2023/09/01 01:02:46;;;;;;;;;;;;;;;;;;10441596;28;20489;-78
2023/09/01 01:07:52;;;;;;;5.55;3.03;;;;;;;;;;10445472;28;19920;-77
2023/09/01 01:12:58;;;;;;;5.35;2.70;;;;;;;;;;10451881;28;20471;-78
2023/09/01 01:18:04;;;;;;;10.10;3.50;;;;;;;;;;10445083;28;20439;-78
2023/09/01 01:23:10;;;;;;;6.65;2.75;;;;;;;;;;10438887;28;20041;-77
2023/09/01 01:28:13;;;;;;;8.50;3.65;;;;;;;;;;10442258;28;20045;-77
2023/09/01 01:33:27;;;;;;;10.60;5.47;;;;;;;;;;10434342;28;20445;-78
2023/09/01 01:38:29;;;;;;;;;;;;;;;;;;10447713;28;20068;-79
2023/09/01 01:43:34;;;;;;;5.72;3.25;;;;;;;;;;10440217;28;19927;-78
2023/09/01 01:48:38;;;;;;;8.60;3.53;;;;;;;;;;10444227;28;20060;-78
2023/09/01 01:53:40;;;;;;;;;;;;;;;;;;10436954;28;20506;-77
2023/09/01 01:58:44;;;;;;;6.80;3.47;;;;;;;;;;10438803;28;20003;-78
2023/09/01 02:03:47;;;;;;;7.45;2.40;;;;;;;;;;10438740;28;20049;-79
2023/09/01 02:08:50;;;;;;;7.80;2.97;;;;;;;;;;10429693;28;20043;-77
2023/09/01 02:13:54;;;;;;;7.93;3.33;;;;;;;;;;10437730;28;20072;-77
2023/09/01 02:18:57;;;;;;;2.88;1.73;;;;;;;;;;10433311;28;20459;-77
2023/09/01 02:24:00;;;;;;;6.93;2.88;;;;;;;;;;10435460;28;20142;-77
2023/09/01 02:29:05;;;;;;;3.65;2.13;;;;;;;;;;10432110;28;20036;-78
2023/09/01 02:34:08;;;;;;;4.68;2.47;;;;;;;;;;10432579;28;20099;-78
2023/09/01 02:39:11;;;;;;;2.38;1.67;;;;;;;;;;10436787;28;20072;-77
2023/09/01 02:44:15;;;;;;;6.35;3.35;;;;;;;;;;10433698;28;20491;-78
2023/09/01 02:49:18;;;;;;;;;;;;;;;;;;10434112;28;20129;-78
2023/09/01 02:54:20;;;;;;;5.57;2.38;;;;;;;;;;10433001;28;19944;-78
2023/09/01 02:59:24;;;;;;;6.82;3.42;;;;;;;;;;10433905;28;20038;-78
2023/09/01 03:04:26;;;;;;;;;;;;;;;;;;10434233;28;20056;-78
2023/09/01 03:09:29;;;;;;;4.15;1.88;;;;;;;;;;10428057;28;19942;-77
2023/09/01 03:14:33;;;;;;;7.82;3.10;;;;;;;;;;10430901;28;20539;-79
2023/09/01 03:19:36;;;;;;;5.63;2.85;;;;;;;;;;10432731;28;20156;-78
2023/09/01 03:24:39;;;;;;;6.57;3.38;;;;;;;;;;10436290;28;20049;-78
2023/09/01 03:29:43;;;;;;;6.80;3.50;;;;;;;;;;10430894;28;20166;-78
2023/09/01 03:34:46;;;;;;;7.38;3.83;;;;;;;;;;10436296;28;20327;-79
2023/09/01 03:39:48;;;;;;;5.22;2.97;;;;;;;;;;10434298;28;20041;-79
2023/09/01 03:44:53;;;;;;;3.90;1.60;;;;;;;;;;10432076;28;20457;-79
2023/09/01 03:49:56;;;;;;;5.85;3.47;;;;;;;;;;10442975;28;20094;-79
2023/09/01 03:54:58;;;;;;;3.40;1.85;;;;;;;;;;10436696;28;20040;-79
2023/09/01 04:00:11;;;;;;;3.33;1.85;;;;;;;;;;10440224;28;20045;-79
2023/09/01 04:05:14;;;;;;;5.83;2.10;;;;;;;;;;10443060;28;20057;-79
2023/09/01 04:10:17;;;;;;;3.47;2.13;;;;;;;;;;10447570;28;20716;-79
2023/09/01 04:15:21;;;;;;;4.75;2.67;;;;;;;;;;10439907;28;20049;-79
2023/09/01 04:20:24;;;;;;;6.93;2.88;;;;;;;;;;10444145;28;20132;-79
2023/09/01 04:25:27;;;;;;;5.22;2.78;;;;;;;;;;10448933;28;20127;-79
2023/09/01 04:30:33;;;;;;;4.47;2.75;;;;;;;;;;10439179;28;20120;-79
2023/09/01 04:35:36;;;;;;;;;;;;;;;;;;10438404;28;20049;-79
2023/09/01 04:40:38;;;;;;;2.42;1.52;;;;;;;;;;10446408;28;19935;-79
2023/09/01 04:45:45;;;;;;;5.35;2.70;;;;;;;;;;10454770;28;20261;-80
2023/09/01 04:50:48;;;;;;;5.13;3.05;;;;;;;;;;10444483;28;20049;-80
2023/09/01 04:55:51;;;;;;;4.63;2.85;;;;;;;;;;10441672;28;20033;-80
2023/09/01 05:00:55;;;;;;;6.05;2.50;;;;;;;;;;10445009;28;20398;-78
2023/09/01 05:05:58;;;;;;;1.92;1.27;;;;;;;;;;10448752;28;20080;-78
2023/09/01 05:11:00;;;;;;;4.95;2.70;;;;;;;;;;10438120;28;20107;-79
2023/09/01 05:16:07;;;;;;;5.60;2.60;;;;;;;;;;10443630;28;20433;-78
2023/09/01 05:21:09;;;;;;;6.10;2.53;;;;;;;;;;10441830;28;20048;-78
2023/09/01 05:26:14;;;;;;;6.07;2.78;;;;;;;;;;10439853;28;20125;-78
2023/09/01 05:31:19;;;;;;;2.47;1.45;;;;;;;;;;10441652;28;20068;-79
2023/09/01 05:36:21;;;;;;;4.75;2.60;;;;;;;;;;10442130;28;20041;-79
2023/09/01 05:41:24;;;;;;;1.42;1.27;;;;;;;;;;10442414;28;20047;-79
2023/09/01 05:46:28;;;;;;;5.40;2.27;;;;;;;;;;10445663;28;20363;-79
2023/09/01 05:51:31;;;;;;;5.03;2.63;;;;;;;;;;10443532;28;20112;-79
2023/09/01 05:56:34;;;;;;;3.30;2.03;;;;;;;;;;10442449;28;20044;-82
2023/09/01 06:01:39;;;;;;;6.05;2.50;;;;;;;;;;10440648;28;20104;-79
2023/09/01 06:06:42;;;;;;;3.17;1.75;;;;;;;;;;10434908;28;20037;-78
2023/09/01 06:11:44;;;;;;;3.63;1.83;;;;;;;;;;10446701;28;20101;-79
2023/09/01 06:16:50;;;;;;;2.22;1.13;;;;;;;;;;10434704;28;20414;-78
2023/09/01 06:21:53;;;;;;;3.88;1.77;;;;;;;;;;10435228;28;20044;-78
2023/09/01 06:26:56;;;;;;;4.45;1.60;;;;;;;;;;10434456;28;20065;-78
2023/09/01 06:32:00;;;;;;;2.90;1.80;;;;;;;;;;10436041;28;20154;-78
2023/09/01 06:37:03;;;;;;;2.40;1.60;;;;;;;;;;10436406;28;20135;-79
2023/09/01 06:42:06;;;;;;;1.67;1.40;;;;;;;;;;10438933;28;20182;-80
2023/09/01 06:47:09;;;;;;;;;;;;;;;;;;10439543;28;20037;-78
2023/09/01 06:52:13;;;;;;;2.72;1.70;;;;;;;;;;10445475;28;19921;-80
2023/09/01 06:57:15;;;;;;;4.63;1.92;;;;;;;;;;10438785;28;20075;-78
2023/09/01 07:02:18;;;;;;;3.38;1.90;;;;;;;;;;10450483;28;20045;-78
2023/09/01 07:07:22;;;;;;;3.77;1.70;;;;;;;;;;10447092;28;20059;-79
2023/09/01 07:12:25;;;;;;;2.20;1.42;;;;;;;;;;10440729;28;20037;-78
2023/09/01 07:17:27;;;;;;;2.85;1.33;;;;;;;;;;10450773;28;20040;-79
2023/09/01 07:22:31;;;;;;;2.70;1.55;;;;;;;;;;10442140;28;20512;-78
2023/09/01 07:27:34;;;;;;;4.85;1.48;;;;;;;;;;10446187;28;20048;-77
2023/09/01 07:32:37;;;;;;;3.53;1.58;;;;;;;;;;10442354;28;20455;-78
2023/09/01 07:37:41;;;;;;;4.03;1.42;;;;;;;;;;10443806;28;20065;-80
2023/09/01 07:42:43;;;;;;;4.43;1.55;;;;;;;;;;10436629;28;20041;-81
2023/09/01 07:47:47;;;;;;;3.72;1.50;;;;;;;;;;10425979;28;20055;-78
2023/09/01 07:53:08;;;;;;;3.45;1.55;;;;;;;;;;10438673;28;20467;-80
2023/09/01 07:58:11;;;;;;;2.42;1.52;;;;;;;;;;10436335;28;20550;-80
2023/09/01 08:03:13;;;;;;;1.92;1.70;;;;;;;;;;10432979;28;20064;-83
2023/09/01 08:08:18;;;;;;;2.58;1.30;;;;;;;;;;10441220;28;20045;-80
2023/09/01 08:13:22;;;;;;;2.30;1.30;;;;;;;;;;10431327;28;20045;-81
2023/09/01 08:18:24;;;;;;;3.60;1.50;;;;;;;;;;10439402;28;20037;-81
2023/09/01 08:23:28;;;;;;;1.55;1.10;;;;;;;;;;10441488;28;20053;-81
2023/09/01 08:28:31;;;;;;;2.85;1.40;;;;;;;;;;10435813;28;20458;-81
2023/09/01 08:33:36;;;;;;;2.95;1.73;;;;;;;;;;10425392;28;20050;-81
2023/09/01 08:38:40;;;;;;;2.03;1.35;;;;;;;;;;10437221;28;20041;-81
2023/09/01 08:43:47;;;;;;;4.20;1.30;;;;;;;;;;10434541;28;20049;-81
2023/09/01 08:48:50;;;;;;;3.47;1.70;;;;;;;;;;10453266;28;20090;-81
2023/09/01 08:53:54;;;;;;;1.40;1.30;;;;;;;;;;10449701;28;20550;-81
2023/09/01 08:58:57;;;;;;;2.35;1.98;;;;;;;;;;10444605;28;20083;-82
2023/09/01 09:04:01;;;;;;;2.80;1.45;;;;;;;;;;10439804;28;20063;-81
2023/09/01 09:09:06;;;;;;;1.75;1.60;;;;;;;;;;10436239;28;20511;-81
2023/09/01 09:14:09;;;;;;;2.30;2.10;;;;;;;;;;10450527;28;20159;-81
2023/09/01 09:19:16;;;;;;;3.00;1.48;;;;;;;;;;10446759;28;20453;-80
2023/09/01 09:24:34;;;;;;;2.13;1.40;;;;;;;;;;10438865;28;20463;-81
2023/09/01 09:29:40;;;;;;;2.92;1.42;;;;;;;;;;10431218;28;20037;-81
2023/09/01 09:34:44;;;;;;;2.78;1.70;;;;;;;;;;10441675;28;20073;-80
2023/09/01 09:39:46;;;;;;;1.60;1.25;;;;;;;;;;10452636;28;20095;-81
2023/09/01 09:44:52;;;;;;;2.53;1.40;;;;;;;;;;10444091;28;20692;-81
2023/09/01 09:49:55;;;;;;;2.40;1.42;;;;;;;;;;10442675;28;20442;-81
2023/09/01 09:55:01;;;;;;;2.00;1.77;;;;;;;;;;10440765;28;20064;-81
2023/09/01 10:00:10;;;;;;;2.55;1.77;;;;;;;;;;10436965;28;20114;-82
2023/09/01 10:05:15;;;;;;;4.33;1.60;;;;;;;;;;10438748;28;20071;-81
2023/09/01 10:10:18;;;;;;;3.00;1.40;;;;;;;;;;10441252;28;20040;-81
2023/09/01 10:15:22;;;;;;;4.57;1.75;;;;;;;;;;10442604;28;20041;-81
2023/09/01 10:20:25;;;;;;;1.75;1.63;;;;;;;;;;10440052;28;20120;-81
2023/09/01 10:25:28;;;;;;;1.60;1.50;;;;;;;;;;10437937;28;20041;-81
2023/09/01 10:30:32;;;;;;;2.10;1.80;;;;;;;;;;10436652;28;20045;-81
2023/09/01 10:35:37;;;;;;;2.30;1.70;;;;;;;;;;10456876;28;20041;-81
2023/09/01 10:40:40;;;;;;;2.30;1.80;;;;;;;;;;10445359;28;20043;-81
2023/09/01 10:46:04;;;;;;;1.75;1.40;;;;;;;;;;10442455;28;20049;-82
2023/09/01 10:51:17;;;;;;;2.13;1.70;;;;;;;;;;10436983;28;20037;-81
2023/09/01 10:56:20;;;;;;;2.72;1.50;;;;;;;;;;10436086;28;20064;-81
2023/09/01 11:01:28;;;;;;;2.53;1.40;;;;;;;;;;10446612;28;20073;-81
2023/09/01 11:06:51;;;;;;;1.20;1.10;;;;;;;;;;10442839;28;20638;-80
2023/09/01 11:11:54;;;;;;;1.92;1.20;;;;;;;;;;10439373;28;20045;-81
2023/09/01 11:16:57;;;;;;;1.35;1.25;;;;;;;;;;10438550;28;20442;-81
2023/09/01 11:22:00;;;;;;;2.08;1.63;;;;;;;;;;10433300;28;20485;-82
2023/09/01 11:27:04;;;;;;;2.33;1.90;;;;;;;;;;10446282;28;20163;-80
2023/09/01 11:32:08;;;;;;;2.30;1.40;;;;;;;;;;10443089;28;20148;-81
2023/09/01 11:37:10;;;;;;;1.98;1.42;;;;;;;;;;10437394;28;20596;-80
2023/09/01 11:42:13;;;;;;;1.80;1.70;;;;;;;;;;10431594;28;20065;-81
2023/09/01 11:47:17;;;;;;;3.75;1.30;;;;;;;;;;10432817;28;20049;-80
2023/09/01 11:52:20;;;;;;;1.52;1.25;;;;;;;;;;10440713;28;20029;-81
2023/09/01 11:57:23;;;;;;;1.73;1.30;;;;;;;;;;10440547;28;20198;-80
2023/09/01 12:02:28;;;;;;;1.75;1.48;;;;;;;;;;10438765;28;20068;-81
2023/09/01 12:07:30;;;;;;;1.95;1.48;;;;;;;;;;10439464;28;20080;-80
2023/09/01 12:12:37;;;;;;;1.75;1.63;;;;;;;;;;10436172;28;20424;-80
2023/09/01 12:17:41;;;;;;;2.97;1.40;;;;;;;;;;10437312;28;20055;-80
2023/09/01 12:22:43;;;;;;;3.05;1.65;;;;;;;;;;10449557;28;20049;-80
2023/09/01 12:27:48;;;;;;;5.43;1.58;;;;;;;;;;10447889;28;20469;-81
2023/09/01 12:32:52;;;;;;;2.03;1.65;;;;;;;;;;10446296;28;20095;-81
2023/09/01 12:37:55;;;;;;;1.85;1.55;;;;;;;;;;10437443;28;20072;-81
2023/09/01 12:42:57;;;;;;;2.55;1.65;;;;;;;;;;10441793;28;20103;-81
2023/09/01 12:48:01;;;;;;;2.53;1.52;;;;;;;;;;10449732;28;20128;-81
2023/09/01 12:53:04;;;;;;;2.30;1.40;;;;;;;;;;10444889;28;20048;-81
2023/09/01 12:58:07;;;;;;;2.22;1.55;;;;;;;;;;10443435;28;20102;-81
2023/09/01 13:03:11;;;;;;;1.30;1.20;;;;;;;;;;10443421;28;20509;-80
2023/09/01 13:08:14;;;;;;;1.73;1.30;;;;;;;;;;10439287;28;20057;-81
2023/09/01 13:13:18;;;;;;;1.65;1.00;;;;;;;;;;10455156;28;20098;-80
2023/09/01 13:18:22;;;;;;;2.10;1.05;;;;;;;;;;10449923;28;20064;-80
2023/09/01 13:23:25;;;;;;;1.60;0.98;;;;;;;;;;10444472;28;20297;-82
2023/09/01 13:28:27;;;;;;;1.50;1.00;;;;;;;;;;10438471;28;20120;-81
2023/09/01 13:33:40;;;;;;;4.35;1.30;;;;;;;;;;10439390;28;20114;-82
2023/09/01 13:38:43;;;;;;;2.17;1.40;;;;;;;;;;10442556;28;20135;-81
2023/09/01 13:43:46;;;;;;;2.95;1.15;;;;;;;;;;10446295;28;20124;-81
2023/09/01 13:49:07;;;;;;;2.45;1.10;;;;;;;;;;10439022;28;20044;-82
2023/09/01 13:54:09;;;;;;;1.73;1.20;;;;;;;;;;10440398;28;20040;-81
2023/09/01 13:59:12;;;;;;;2.20;1.15;;;;;;;;;;10442874;28;20049;-81
2023/09/01 14:04:16;;;;;;;2.20;1.40;;;;;;;;;;10438401;28;20064;-81
2023/09/01 14:09:19;;;;;;;1.83;1.10;;;;;;;;;;10447240;28;20041;-81
2023/09/01 14:14:21;;;;;;;2.35;1.30;;;;;;;;;;10444210;28;20052;-81
2023/09/01 14:19:25;;;;;;;2.03;1.30;;;;;;;;;;10441248;28;20072;-81
2023/09/01 14:24:28;;;;;;;1.95;1.25;;;;;;;;;;10440411;28;20068;-80
2023/09/01 14:29:35;;;;;;;2.42;1.20;;;;;;;;;;10431619;28;20124;-80
2023/09/01 14:34:39;;;;;;;3.50;1.58;;;;;;;;;;10448036;28;20041;-80
2023/09/01 14:39:41;;;;;;;2.00;1.10;;;;;;;;;;10448273;28;20041;-80
2023/09/01 14:44:44;;;;;;;3.70;1.10;;;;;;;;;;10440172;28;20503;-81
2023/09/01 14:49:48;;;;;;;1.88;1.23;;;;;;;;;;10441315;28;20041;-80
2023/09/01 14:54:51;;;;;;;2.00;1.10;;;;;;;;;;10440052;28;20041;-80
2023/09/01 14:59:53;;;;;;;2.65;1.60;;;;;;;;;;10435562;28;20095;-80
2023/09/01 15:04:57;;;;;;;1.73;1.10;;;;;;;;;;10448639;28;20101;-80
2023/09/01 15:10:00;;;;;;;1.45;1.00;;;;;;;;;;10442427;28;20041;-80
2023/09/01 15:15:03;;;;;;;2.17;1.10;;;;;;;;;;10435398;28;20034;-80
2023/09/01 15:20:10;;;;;;;2.50;1.30;;;;;;;;;;10439816;28;20090;-81
2023/09/01 15:25:13;;;;;;;1.98;1.30;;;;;;;;;;10434339;28;20123;-81
2023/09/01 15:30:15;;;;;;;17.35;7.57;;;;;;;;;;10443970;28;20068;-80
2023/09/01 15:35:20;;;;;;;1.80;1.33;;;;;;;;;;10439887;28;20068;-80
2023/09/01 15:40:28;;;;;;;2.95;1.38;;;;;;;;;;10434967;28;20520;-80
2023/09/01 15:45:31;;;;;;;3.22;0.90;;;;;;;;;;10433125;28;20165;-81
2023/09/01 15:50:33;;;;;;;;;;;;;;;;;;10430309;28;20041;-80
2023/09/01 15:55:48;;;;;;;4.28;2.05;;;;;;;;;;10439864;28;19921;-80
2023/09/01 16:00:52;;;;;;;2.53;1.48;;;;;;;;;;10439692;28;20052;-80
2023/09/01 16:05:55;;;;;;;1.20;0.95;;;;;;;;;;10437935;28;20040;-80
2023/09/01 16:10:57;;;;;;;;;;;;;;;;;;10433063;28;20065;-80
2023/09/01 16:16:04;;;;;;;3.50;1.33;;;;;;;;;;10437173;28;20015;-80
2023/09/01 16:21:07;;;;;;;3.05;1.30;;;;;;;;;;10447160;28;20040;-80
2023/09/01 16:26:09;;;;;;;;;;;;;;;;;;10436590;28;20087;-80
2023/09/01 16:31:13;;;;;;;3.30;1.20;;;;;;;;;;10434907;28;19927;-80
2023/09/01 16:36:15;;;;;;;1.95;1.20;;;;;;;;;;10429366;28;20060;-80
2023/09/01 16:41:18;;;;;;;2.38;1.45;;;;;;;;;;10429928;28;20136;-80
2023/09/01 16:46:22;;;;;;;1.58;0.98;;;;;;;;;;10435611;28;20106;-80
2023/09/01 16:51:25;;;;;;;2.13;1.23;;;;;;;;;;10441407;28;20547;-80
2023/09/01 16:56:27;;;;;;;2.58;1.40;;;;;;;;;;10437767;28;20067;-79
2023/09/01 17:01:31;;;;;;;4.57;1.30;;;;;;;;;;10432366;28;20167;-79
2023/09/01 17:06:34;;;;;;;2.47;1.40;;;;;;;;;;10433403;28;20065;-79
2023/09/01 17:11:36;;;;;;;4.25;1.40;;;;;;;;;;10435429;28;20033;-79
2023/09/01 17:16:40;;;;;;;2.72;1.50;;;;;;;;;;10454406;28;20075;-80
2023/09/01 17:21:43;;;;;;;2.72;1.75;;;;;;;;;;10450064;28;20560;-80
2023/09/01 17:26:45;;;;;;;4.80;2.20;;;;;;;;;;10451172;28;20090;-80
2023/09/01 17:31:49;;;;;;;3.15;1.40;;;;;;;;;;10435864;28;20387;-80
2023/09/01 17:36:52;;;;;;;2.47;1.40;;;;;;;;;;10441400;28;20033;-80
2023/09/01 17:41:54;;;;;;;7.60;2.63;;;;;;;;;;10443425;28;20059;-80
2023/09/01 17:46:59;;;;;;;4.47;2.25;;;;;;;;;;10445860;28;20330;-80
2023/09/01 17:52:02;;;;;;;7.80;3.97;;;;;;;;;;10443190;28;20037;-80
2023/09/01 17:57:04;;;;;;;;;;;;;;;;;;10435703;28;20138;-79
2023/09/01 18:02:10;;;;;;;4.00;1.65;;;;;;;;;;10434931;28;20015;-79
2023/09/01 18:07:14;;;;;;;3.78;1.90;;;;;;;;;;10445419;28;20089;-80
2023/09/01 18:12:17;;;;;;;7.95;3.38;;;;;;;;;;10441783;28;20061;-81
2023/09/01 18:17:21;;;;;;;6.47;3.00;;;;;;;;;;10442770;28;20129;-80
2023/09/01 18:22:24;;;;;;;6.97;3.33;;;;;;;;;;10443941;28;20048;-79
2023/09/01 18:27:30;;;;;;;7.90;3.37;;;;;;;;;;10429859;28;20228;-79
2023/09/01 18:32:34;;;;;;;5.32;2.63;;;;;;;;;;10437903;28;20076;-78
2023/09/01 18:37:37;;;;;;;6.40;2.50;;;;;;;;;;10446236;28;20552;-79
2023/09/01 18:42:41;;;;;;;11.85;4.55;;;;;;;;;;10439233;28;20087;-79
2023/09/01 18:47:45;;;;;;;6.85;3.00;;;;;;;;;;10441950;28;20083;-79
2023/09/01 18:52:52;;;;;;;9.30;4.50;;;;;;;;;;10431797;28;20035;-79
2023/09/01 18:57:55;;;;;;;5.15;2.53;;;;;;;;;;10449227;28;20118;-79
2023/09/01 19:03:00;;;;;;;7.80;3.10;;;;;;;;;;10440494;28;20044;-79
2023/09/01 19:08:17;;;;;;;11.50;4.60;;;;;;;;;;10443581;28;20303;-80
2023/09/01 19:13:21;;;;;;;7.57;3.58;;;;;;;;;;10436940;28;20060;-80
2023/09/01 19:18:29;;;;;;;11.13;4.78;;;;;;;;;;10436778;28;20045;-80
2023/09/01 19:23:33;;;;;;;18.88;10.05;;;;;;;;;;10444752;28;20033;-80
2023/09/01 19:28:36;;;;;;;10.85;5.70;;;;;;;;;;10442656;28;20052;-80
2023/09/01 19:33:44;;;;;;;9.88;4.90;;;;;;;;;;10442190;28;20043;-80
2023/09/01 19:38:47;;;;;;;9.07;4.18;;;;;;;;;;10442533;28;20040;-81
2023/09/01 19:43:52;;;;;;;9.10;3.87;;;;;;;;;;10445906;28;20037;-80
2023/09/01 19:48:58;;;;;;;10.45;4.82;;;;;;;;;;10433652;28;20375;-79
2023/09/01 19:54:00;;;;;;;8.50;4.38;;;;;;;;;;10441724;28;20389;-81
2023/09/01 19:59:05;;;;;;;13.20;6.25;;;;;;;;;;10439141;28;20037;-80
2023/09/01 20:04:12;;;;;;;22.25;10.20;;;;;;;;;;10439995;28;20125;-79
2023/09/01 20:09:15;;;;;;;13.77;6.93;;;;;;;;;;10434996;28;20049;-80
2023/09/01 20:14:18;;;;;;;17.20;6.05;;;;;;;;;;10431263;28;20045;-81
2023/09/01 20:19:24;;;;;;;12.20;5.97;;;;;;;;;;10445776;28;20450;-80
2023/09/01 20:24:27;;;;;;;12.38;4.68;;;;;;;;;;10434565;28;20127;-80
2023/09/01 20:29:29;;;;;;;13.03;6.30;;;;;;;;;;10437085;28;20059;-80
2023/09/01 20:34:33;;;;;;;10.87;4.43;;;;;;;;;;10435675;28;20053;-81
2023/09/01 20:39:36;;;;;;;12.77;5.53;;;;;;;;;;10437884;28;20075;-81
2023/09/01 20:44:42;;;;;;;14.75;6.60;;;;;;;;;;10440409;28;20065;-80
2023/09/01 20:49:46;;;;;;;10.90;5.03;;;;;;;;;;10450169;28;20124;-80
2023/09/01 20:54:48;;;;;;;8.85;3.95;;;;;;;;;;10452079;28;20067;-81
2023/09/01 20:59:51;;;;;;;9.60;4.40;;;;;;;;;;10447504;28;20106;-80
2023/09/01 21:04:55;;;;;;;11.87;5.80;;;;;;;;;;10438364;28;20072;-80
2023/09/01 21:09:57;;;;;;;10.02;4.47;;;;;;;;;;10440491;28;20060;-80
2023/09/01 21:15:00;;;;;;;12.90;5.88;;;;;;;;;;10447746;28;20094;-80
2023/09/01 21:20:06;;;;;;;9.10;4.05;;;;;;;;;;10449840;28;20047;-80
2023/09/01 21:25:10;;;;;;;9.27;4.20;;;;;;;;;;10439737;28;20052;-79
2023/09/01 21:30:15;;;;;;;12.77;4.73;;;;;;;;;;10442329;28;20072;-79
2023/09/01 21:35:19;;;;;;;11.38;5.22;;;;;;;;;;10446774;28;20933;-80
2023/09/01 21:40:21;;;;;;;8.63;4.40;;;;;;;;;;10447464;28;20045;-80
2023/09/01 21:45:24;;;;;;;9.97;4.83;;;;;;;;;;10445481;28;20091;-79
2023/09/01 21:50:28;;;;;;;9.30;3.90;;;;;;;;;;10443893;28;20545;-79
2023/09/01 21:55:31;;;;;;;6.28;3.30;;;;;;;;;;10442498;28;20084;-79
2023/09/01 22:00:33;;;;;;;5.97;3.00;;;;;;;;;;10437508;28;20057;-80
2023/09/01 22:05:37;;;;;;;7.53;3.17;;;;;;;;;;10441666;28;20048;-80
2023/09/01 22:10:40;;;;;;;8.30;3.50;;;;;;;;;;10448411;28;20498;-81
2023/09/01 22:15:44;;;;;;;6.57;3.05;;;;;;;;;;10444683;28;20037;-80
2023/09/01 22:20:49;;;;;;;6.05;2.78;;;;;;;;;;10441969;28;20270;-80
2023/09/01 22:25:51;;;;;;;5.50;2.75;;;;;;;;;;10433655;28;20050;-79
2023/09/01 22:30:54;;;;;;;4.65;2.40;;;;;;;;;;10437948;28;20049;-80
2023/09/01 22:35:57;;;;;;;6.53;2.42;;;;;;;;;;10456831;28;20096;-80
2023/09/01 22:41:00;;;;;;;7.60;2.60;;;;;;;;;;10436477;28;20094;-80
2023/09/01 22:46:03;;;;;;;4.45;2.13;;;;;;;;;;10439167;28;20074;-80
2023/09/01 22:51:07;;;;;;;3.90;1.88;;;;;;;;;;10436162;28;20040;-80
2023/09/01 22:56:09;;;;;;;6.43;2.55;;;;;;;;;;10436842;28;20098;-80
2023/09/01 23:01:12;;;;;;;4.53;2.40;;;;;;;;;;10444890;28;20044;-80
2023/09/01 23:06:16;;;;;;;5.82;2.50;;;;;;;;;;10441059;28;20052;-80
2023/09/01 23:11:19;;;;;;;4.00;2.13;;;;;;;;;;10438753;28;20103;-80
2023/09/01 23:16:22;;;;;;;4.53;2.25;;;;;;;;;;10435560;28;20619;-79
2023/09/01 23:21:26;;;;;;;5.13;2.30;;;;;;;;;;10434784;28;20041;-79
2023/09/01 23:26:29;;;;;;;5.88;2.63;;;;;;;;;;10444016;28;20536;-79
2023/09/01 23:31:31;;;;;;;6.47;2.08;;;;;;;;;;10442205;28;20532;-79
2023/09/01 23:36:35;;;;;;;3.50;2.22;;;;;;;;;;10439798;28;20083;-79
2023/09/01 23:41:43;;;;;;;5.03;2.03;;;;;;;;;;10436731;28;20484;-79
2023/09/01 23:46:46;;;;;;;4.97;1.73;;;;;;;;;;10433361;28;20045;-79
2023/09/01 23:51:50;;;;;;;4.85;2.30;;;;;;;;;;10447198;28;20143;-78
2023/09/01 23:56:52;;;;;;;7.28;1.88;;;;;;;;;;10443033;28;20049;-79
